sensor_id;sensor_type;location;lat;lon;timestamp;temperature;humidity
22065;DHT22;11197;53.110;8.468;2023-09-30T00:00:26;14.00;99.90
22065;DHT22;11197;53.110;8.468;2023-09-30T00:02:52;14.00;99.90
22065;DHT22;11197;53.110;8.468;2023-09-30T00:05:18;14.00;99.90
22065;DHT22;11197;53.110;8.468;2023-09-30T00:07:46;14.00;99.90
22065;DHT22;11197;53.110;8.468;2023-09-30T00:10:11;14.00;99.90
22065;DHT22;11197;53.110;8.468;2023-09-30T00:12:37;14.00;99.90
22065;DHT22;11197;53.110;8.468;2023-09-30T00:15:04;14.00;99.90
22065;DHT22;11197;53.110;8.468;2023-09-30T00:17:29;13.90;99.90
22065;DHT22;11197;53.110;8.468;2023-09-30T00:19:55;13.90;99.90
22065;DHT22;11197;53.110;8.468;2023-09-30T00:22:21;13.90;99.90
22065;DHT22;11197;53.110;8.468;2023-09-30T00:24:47;13.90;99.90
22065;DHT22;11197;53.110;8.468;2023-09-30T00:27:12;13.90;99.90
22065;DHT22;11197;53.110;8.468;2023-09-30T00:29:38;13.90;99.90
22065;DHT22;11197;53.110;8.468;2023-09-30T00:32:04;13.90;99.90
22065;DHT22;11197;53.110;8.468;2023-09-30T00:34:33;13.80;99.90
22065;DHT22;11197;53.110;8.468;2023-09-30T00:36:59;13.80;99.90
22065;DHT22;11197;53.110;8.468;2023-09-30T00:39:25;13.80;99.90
22065;DHT22;11197;53.110;8.468;2023-09-30T00:41:55;13.80;99.90
22065;DHT22;11197;53.110;8.468;2023-09-30T00:44:21;13.80;99.90
22065;DHT22;11197;53.110;8.468;2023-09-30T00:46:47;13.80;99.90
22065;DHT22;11197;53.110;8.468;2023-09-30T00:49:14;13.80;99.90
22065;DHT22;11197;53.110;8.468;2023-09-30T00:51:40;13.80;99.90
22065;DHT22;11197;53.110;8.468;2023-09-30T00:54:06;13.80;99.90
22065;DHT22;11197;53.110;8.468;2023-09-30T00:56:33;13.70;99.90
22065;DHT22;11197;53.110;8.468;2023-09-30T00:58:59;13.70;99.90
22065;DHT22;11197;53.110;8.468;2023-09-30T01:01:26;13.70;99.90
22065;DHT22;11197;53.110;8.468;2023-09-30T01:03:52;13.70;99.90
22065;DHT22;11197;53.110;8.468;2023-09-30T01:06:17;13.70;99.90
22065;DHT22;11197;53.110;8.468;2023-09-30T01:08:44;13.70;99.90
22065;DHT22;11197;53.110;8.468;2023-09-30T01:11:09;13.70;99.90
22065;DHT22;11197;53.110;8.468;2023-09-30T01:13:37;13.70;99.90
22065;DHT22;11197;53.110;8.468;2023-09-30T01:16:09;13.70;99.90
22065;DHT22;11197;53.110;8.468;2023-09-30T01:18:39;13.70;99.90
22065;DHT22;11197;53.110;8.468;2023-09-30T01:21:08;13.70;99.90
22065;DHT22;11197;53.110;8.468;2023-09-30T01:23:34;13.70;99.90
22065;DHT22;11197;53.110;8.468;2023-09-30T01:26:09;13.60;99.90
22065;DHT22;11197;53.110;8.468;2023-09-30T01:28:35;13.60;99.90
22065;DHT22;11197;53.110;8.468;2023-09-30T01:31:02;13.60;99.90
22065;DHT22;11197;53.110;8.468;2023-09-30T01:33:27;13.60;99.90
22065;DHT22;11197;53.110;8.468;2023-09-30T01:35:54;13.50;99.90
22065;DHT22;11197;53.110;8.468;2023-09-30T01:38:20;13.50;99.90
22065;DHT22;11197;53.110;8.468;2023-09-30T01:40:46;13.40;99.90
22065;DHT22;11197;53.110;8.468;2023-09-30T01:43:15;13.40;99.90
22065;DHT22;11197;53.110;8.468;2023-09-30T01:45:41;13.40;99.90
22065;DHT22;11197;53.110;8.468;2023-09-30T01:48:08;13.40;99.90
22065;DHT22;11197;53.110;8.468;2023-09-30T01:50:37;13.40;99.90
22065;DHT22;11197;53.110;8.468;2023-09-30T01:53:04;13.40;99.90
22065;DHT22;11197;53.110;8.468;2023-09-30T01:55:32;13.30;99.90
22065;DHT22;11197;53.110;8.468;2023-09-30T01:57:58;13.30;99.90
22065;DHT22;11197;53.110;8.468;2023-09-30T02:00:24;13.30;99.90
22065;DHT22;11197;53.110;8.468;2023-09-30T02:02:49;13.30;99.90
22065;DHT22;11197;53.110;8.468;2023-09-30T02:05:15;13.30;99.90
22065;DHT22;11197;53.110;8.468;2023-09-30T02:07:41;13.30;99.90
22065;DHT22;11197;53.110;8.468;2023-09-30T02:10:07;13.30;99.90
22065;DHT22;11197;53.110;8.468;2023-09-30T02:12:33;13.30;99.90
22065;DHT22;11197;53.110;8.468;2023-09-30T02:14:58;13.30;99.90
22065;DHT22;11197;53.110;8.468;2023-09-30T02:17:24;13.20;99.90
22065;DHT22;11197;53.110;8.468;2023-09-30T02:19:51;13.20;99.90
22065;DHT22;11197;53.110;8.468;2023-09-30T02:22:18;13.20;99.90
22065;DHT22;11197;53.110;8.468;2023-09-30T02:24:44;13.20;99.90
22065;DHT22;11197;53.110;8.468;2023-09-30T02:27:10;13.20;99.90
22065;DHT22;11197;53.110;8.468;2023-09-30T02:29:35;13.20;99.90
22065;DHT22;11197;53.110;8.468;2023-09-30T02:32:01;13.20;99.90
22065;DHT22;11197;53.110;8.468;2023-09-30T02:34:26;13.10;99.90
22065;DHT22;11197;53.110;8.468;2023-09-30T02:36:53;13.10;99.90
22065;DHT22;11197;53.110;8.468;2023-09-30T02:39:20;13.10;99.90
22065;DHT22;11197;53.110;8.468;2023-09-30T02:41:46;13.10;99.90
22065;DHT22;11197;53.110;8.468;2023-09-30T02:44:12;13.20;99.90
22065;DHT22;11197;53.110;8.468;2023-09-30T02:46:38;13.20;99.90
22065;DHT22;11197;53.110;8.468;2023-09-30T02:49:03;13.20;99.90
22065;DHT22;11197;53.110;8.468;2023-09-30T02:51:30;13.20;99.90
22065;DHT22;11197;53.110;8.468;2023-09-30T02:53:56;13.20;99.90
22065;DHT22;11197;53.110;8.468;2023-09-30T02:56:21;13.20;99.90
22065;DHT22;11197;53.110;8.468;2023-09-30T02:58:52;13.20;99.90
22065;DHT22;11197;53.110;8.468;2023-09-30T03:01:18;13.20;99.90
22065;DHT22;11197;53.110;8.468;2023-09-30T03:03:44;13.20;99.90
22065;DHT22;11197;53.110;8.468;2023-09-30T03:06:10;13.20;99.90
22065;DHT22;11197;53.110;8.468;2023-09-30T03:08:36;13.20;99.90
22065;DHT22;11197;53.110;8.468;2023-09-30T03:11:02;13.10;99.90
22065;DHT22;11197;53.110;8.468;2023-09-30T03:13:29;13.10;99.90
22065;DHT22;11197;53.110;8.468;2023-09-30T03:15:56;13.10;99.90
22065;DHT22;11197;53.110;8.468;2023-09-30T03:18:22;13.10;99.90
22065;DHT22;11197;53.110;8.468;2023-09-30T03:20:57;13.00;99.90
22065;DHT22;11197;53.110;8.468;2023-09-30T03:23:26;13.00;99.90
22065;DHT22;11197;53.110;8.468;2023-09-30T03:25:59;13.10;99.90
22065;DHT22;11197;53.110;8.468;2023-09-30T03:28:28;13.00;99.90
22065;DHT22;11197;53.110;8.468;2023-09-30T03:30:54;13.00;99.90
22065;DHT22;11197;53.110;8.468;2023-09-30T03:33:20;13.00;99.90
22065;DHT22;11197;53.110;8.468;2023-09-30T03:35:45;13.00;99.90
22065;DHT22;11197;53.110;8.468;2023-09-30T03:38:11;13.00;99.90
22065;DHT22;11197;53.110;8.468;2023-09-30T03:40:42;13.00;99.90
22065;DHT22;11197;53.110;8.468;2023-09-30T03:43:13;13.00;99.90
22065;DHT22;11197;53.110;8.468;2023-09-30T03:45:40;13.00;99.90
22065;DHT22;11197;53.110;8.468;2023-09-30T03:48:07;13.00;99.90
22065;DHT22;11197;53.110;8.468;2023-09-30T03:50:32;13.00;99.90
22065;DHT22;11197;53.110;8.468;2023-09-30T03:53:05;13.00;99.90
22065;DHT22;11197;53.110;8.468;2023-09-30T03:55:34;13.00;99.90
22065;DHT22;11197;53.110;8.468;2023-09-30T03:58:00;13.00;99.90
22065;DHT22;11197;53.110;8.468;2023-09-30T04:00:25;13.00;99.90
22065;DHT22;11197;53.110;8.468;2023-09-30T04:02:52;13.00;99.90
22065;DHT22;11197;53.110;8.468;2023-09-30T04:05:24;13.00;99.90
22065;DHT22;11197;53.110;8.468;2023-09-30T04:07:56;13.10;99.90
22065;DHT22;11197;53.110;8.468;2023-09-30T04:10:21;13.00;99.90
22065;DHT22;11197;53.110;8.468;2023-09-30T04:12:48;13.00;99.90
22065;DHT22;11197;53.110;8.468;2023-09-30T04:15:14;13.00;99.90
22065;DHT22;11197;53.110;8.468;2023-09-30T04:17:40;13.00;99.90
22065;DHT22;11197;53.110;8.468;2023-09-30T04:20:07;13.00;99.90
22065;DHT22;11197;53.110;8.468;2023-09-30T04:22:41;13.00;99.90
22065;DHT22;11197;53.110;8.468;2023-09-30T04:25:08;13.00;99.90
22065;DHT22;11197;53.110;8.468;2023-09-30T04:27:36;13.00;99.90
22065;DHT22;11197;53.110;8.468;2023-09-30T04:30:02;13.10;99.90
22065;DHT22;11197;53.110;8.468;2023-09-30T04:32:37;13.10;99.90
22065;DHT22;11197;53.110;8.468;2023-09-30T04:35:04;13.10;99.90
22065;DHT22;11197;53.110;8.468;2023-09-30T04:37:30;13.10;99.90
22065;DHT22;11197;53.110;8.468;2023-09-30T04:39:56;13.10;99.90
22065;DHT22;11197;53.110;8.468;2023-09-30T04:42:23;13.10;99.90
22065;DHT22;11197;53.110;8.468;2023-09-30T04:44:51;13.00;99.90
22065;DHT22;11197;53.110;8.468;2023-09-30T04:47:17;13.00;99.90
22065;DHT22;11197;53.110;8.468;2023-09-30T04:49:44;13.00;99.90
22065;DHT22;11197;53.110;8.468;2023-09-30T04:52:10;13.10;99.90
22065;DHT22;11197;53.110;8.468;2023-09-30T04:54:35;13.00;99.90
22065;DHT22;11197;53.110;8.468;2023-09-30T04:57:01;13.10;99.90
22065;DHT22;11197;53.110;8.468;2023-09-30T04:59:28;13.10;99.90
22065;DHT22;11197;53.110;8.468;2023-09-30T05:01:55;13.00;99.90
22065;DHT22;11197;53.110;8.468;2023-09-30T05:04:22;13.00;99.90
22065;DHT22;11197;53.110;8.468;2023-09-30T05:06:49;13.00;99.90
22065;DHT22;11197;53.110;8.468;2023-09-30T05:09:15;13.10;99.90
22065;DHT22;11197;53.110;8.468;2023-09-30T05:11:40;13.00;99.90
22065;DHT22;11197;53.110;8.468;2023-09-30T05:14:06;13.10;99.90
22065;DHT22;11197;53.110;8.468;2023-09-30T05:16:32;13.00;99.90
22065;DHT22;11197;53.110;8.468;2023-09-30T05:18:57;13.00;99.90
22065;DHT22;11197;53.110;8.468;2023-09-30T05:21:23;13.00;99.90
22065;DHT22;11197;53.110;8.468;2023-09-30T05:23:49;13.00;99.90
22065;DHT22;11197;53.110;8.468;2023-09-30T05:26:15;13.00;99.90
22065;DHT22;11197;53.110;8.468;2023-09-30T05:28:42;13.00;99.90
22065;DHT22;11197;53.110;8.468;2023-09-30T05:31:08;13.00;99.90
22065;DHT22;11197;53.110;8.468;2023-09-30T05:33:33;13.00;99.90
22065;DHT22;11197;53.110;8.468;2023-09-30T05:35:59;13.00;99.90
22065;DHT22;11197;53.110;8.468;2023-09-30T05:38:28;13.00;99.90
22065;DHT22;11197;53.110;8.468;2023-09-30T05:40:54;13.00;99.90
22065;DHT22;11197;53.110;8.468;2023-09-30T05:43:20;13.00;99.90
22065;DHT22;11197;53.110;8.468;2023-09-30T05:45:47;13.00;99.90
22065;DHT22;11197;53.110;8.468;2023-09-30T05:48:23;13.00;99.90
22065;DHT22;11197;53.110;8.468;2023-09-30T05:50:48;13.00;99.90
22065;DHT22;11197;53.110;8.468;2023-09-30T05:53:14;13.00;99.90
22065;DHT22;11197;53.110;8.468;2023-09-30T05:55:41;13.00;99.90
22065;DHT22;11197;53.110;8.468;2023-09-30T05:58:13;13.00;99.90
22065;DHT22;11197;53.110;8.468;2023-09-30T06:00:40;13.00;99.90
22065;DHT22;11197;53.110;8.468;2023-09-30T06:03:07;13.00;99.90
22065;DHT22;11197;53.110;8.468;2023-09-30T06:05:33;13.00;99.90
22065;DHT22;11197;53.110;8.468;2023-09-30T06:08:00;13.00;99.90
22065;DHT22;11197;53.110;8.468;2023-09-30T06:10:28;13.00;99.90
22065;DHT22;11197;53.110;8.468;2023-09-30T06:12:54;13.00;99.90
22065;DHT22;11197;53.110;8.468;2023-09-30T06:15:22;12.90;99.90
22065;DHT22;11197;53.110;8.468;2023-09-30T06:17:51;12.90;99.90
22065;DHT22;11197;53.110;8.468;2023-09-30T06:20:18;12.90;99.90
22065;DHT22;11197;53.110;8.468;2023-09-30T06:22:46;13.00;99.90
22065;DHT22;11197;53.110;8.468;2023-09-30T06:25:15;12.90;99.90
22065;DHT22;11197;53.110;8.468;2023-09-30T06:27:43;13.00;99.90
22065;DHT22;11197;53.110;8.468;2023-09-30T06:30:09;12.90;99.90
22065;DHT22;11197;53.110;8.468;2023-09-30T06:32:35;12.90;99.90
22065;DHT22;11197;53.110;8.468;2023-09-30T06:35:02;13.00;99.90
22065;DHT22;11197;53.110;8.468;2023-09-30T06:37:28;13.00;99.90
22065;DHT22;11197;53.110;8.468;2023-09-30T06:39:55;13.00;99.90
22065;DHT22;11197;53.110;8.468;2023-09-30T06:42:21;13.00;99.90
22065;DHT22;11197;53.110;8.468;2023-09-30T06:44:47;13.00;99.90
22065;DHT22;11197;53.110;8.468;2023-09-30T06:47:13;13.00;99.90
22065;DHT22;11197;53.110;8.468;2023-09-30T06:49:39;13.00;99.90
22065;DHT22;11197;53.110;8.468;2023-09-30T06:52:05;13.10;99.90
22065;DHT22;11197;53.110;8.468;2023-09-30T06:54:31;13.10;99.90
22065;DHT22;11197;53.110;8.468;2023-09-30T06:56:57;13.10;99.90
22065;DHT22;11197;53.110;8.468;2023-09-30T06:59:23;13.20;99.90
22065;DHT22;11197;53.110;8.468;2023-09-30T07:01:50;13.20;99.90
22065;DHT22;11197;53.110;8.468;2023-09-30T07:04:16;13.20;99.90
22065;DHT22;11197;53.110;8.468;2023-09-30T07:06:41;13.20;99.90
22065;DHT22;11197;53.110;8.468;2023-09-30T07:09:07;13.30;99.90
22065;DHT22;11197;53.110;8.468;2023-09-30T07:11:34;13.30;99.90
22065;DHT22;11197;53.110;8.468;2023-09-30T07:14:01;13.30;99.90
22065;DHT22;11197;53.110;8.468;2023-09-30T07:16:27;13.30;99.90
22065;DHT22;11197;53.110;8.468;2023-09-30T07:18:52;13.40;99.90
22065;DHT22;11197;53.110;8.468;2023-09-30T07:21:18;13.40;99.90
22065;DHT22;11197;53.110;8.468;2023-09-30T07:23:43;13.40;99.90
22065;DHT22;11197;53.110;8.468;2023-09-30T07:26:09;13.40;99.90
22065;DHT22;11197;53.110;8.468;2023-09-30T07:28:34;13.50;99.90
22065;DHT22;11197;53.110;8.468;2023-09-30T07:31:00;13.50;99.90
22065;DHT22;11197;53.110;8.468;2023-09-30T07:33:26;13.50;99.90
22065;DHT22;11197;53.110;8.468;2023-09-30T07:35:52;13.60;99.90
22065;DHT22;11197;53.110;8.468;2023-09-30T07:38:17;13.60;99.90
22065;DHT22;11197;53.110;8.468;2023-09-30T07:40:43;13.60;99.90
22065;DHT22;11197;53.110;8.468;2023-09-30T07:43:10;13.70;99.90
22065;DHT22;11197;53.110;8.468;2023-09-30T07:45:36;13.70;99.90
22065;DHT22;11197;53.110;8.468;2023-09-30T07:48:02;13.80;99.90
22065;DHT22;11197;53.110;8.468;2023-09-30T07:50:30;13.70;99.90
22065;DHT22;11197;53.110;8.468;2023-09-30T07:52:56;13.80;99.90
22065;DHT22;11197;53.110;8.468;2023-09-30T07:55:21;13.80;99.90
22065;DHT22;11197;53.110;8.468;2023-09-30T07:57:47;13.80;99.90
22065;DHT22;11197;53.110;8.468;2023-09-30T08:00:13;13.90;99.90
22065;DHT22;11197;53.110;8.468;2023-09-30T08:02:45;13.90;99.90
22065;DHT22;11197;53.110;8.468;2023-09-30T08:05:11;13.90;99.90
22065;DHT22;11197;53.110;8.468;2023-09-30T08:07:37;13.90;99.90
22065;DHT22;11197;53.110;8.468;2023-09-30T08:10:03;14.00;99.90
22065;DHT22;11197;53.110;8.468;2023-09-30T08:12:37;14.00;99.90
22065;DHT22;11197;53.110;8.468;2023-09-30T08:15:03;14.00;99.90
22065;DHT22;11197;53.110;8.468;2023-09-30T08:17:31;14.10;99.90
22065;DHT22;11197;53.110;8.468;2023-09-30T08:19:57;14.10;99.90
22065;DHT22;11197;53.110;8.468;2023-09-30T08:22:23;14.20;99.90
22065;DHT22;11197;53.110;8.468;2023-09-30T08:24:55;14.20;99.90
22065;DHT22;11197;53.110;8.468;2023-09-30T08:27:21;14.20;99.90
22065;DHT22;11197;53.110;8.468;2023-09-30T08:29:49;14.30;99.90
22065;DHT22;11197;53.110;8.468;2023-09-30T08:32:15;14.30;99.90
22065;DHT22;11197;53.110;8.468;2023-09-30T08:34:40;14.40;99.90
22065;DHT22;11197;53.110;8.468;2023-09-30T08:37:07;14.40;99.90
22065;DHT22;11197;53.110;8.468;2023-09-30T08:39:37;14.40;99.90
22065;DHT22;11197;53.110;8.468;2023-09-30T08:42:05;14.50;99.90
22065;DHT22;11197;53.110;8.468;2023-09-30T08:44:34;14.50;99.90
22065;DHT22;11197;53.110;8.468;2023-09-30T08:47:01;14.50;99.90
22065;DHT22;11197;53.110;8.468;2023-09-30T08:49:27;14.60;99.90
22065;DHT22;11197;53.110;8.468;2023-09-30T08:51:55;14.60;99.90
22065;DHT22;11197;53.110;8.468;2023-09-30T08:54:22;14.60;99.90
22065;DHT22;11197;53.110;8.468;2023-09-30T08:56:49;14.70;99.90
22065;DHT22;11197;53.110;8.468;2023-09-30T08:59:15;14.70;99.90
22065;DHT22;11197;53.110;8.468;2023-09-30T09:01:41;14.80;99.90
22065;DHT22;11197;53.110;8.468;2023-09-30T09:04:07;14.80;99.90
22065;DHT22;11197;53.110;8.468;2023-09-30T09:06:32;14.80;99.90
22065;DHT22;11197;53.110;8.468;2023-09-30T09:09:15;14.90;99.90
22065;DHT22;11197;53.110;8.468;2023-09-30T09:11:43;15.00;99.90
22065;DHT22;11197;53.110;8.468;2023-09-30T09:14:09;15.00;99.90
22065;DHT22;11197;53.110;8.468;2023-09-30T09:16:35;15.10;99.90
22065;DHT22;11197;53.110;8.468;2023-09-30T09:19:13;15.10;99.90
22065;DHT22;11197;53.110;8.468;2023-09-30T09:24:29;15.20;99.90
22065;DHT22;11197;53.110;8.468;2023-09-30T09:27:08;15.30;99.90
22065;DHT22;11197;53.110;8.468;2023-09-30T09:29:34;15.30;99.90
22065;DHT22;11197;53.110;8.468;2023-09-30T09:32:16;15.30;99.90
22065;DHT22;11197;53.110;8.468;2023-09-30T09:34:44;15.40;99.90
22065;DHT22;11197;53.110;8.468;2023-09-30T09:37:20;15.50;99.90
22065;DHT22;11197;53.110;8.468;2023-09-30T09:39:54;15.50;99.90
22065;DHT22;11197;53.110;8.468;2023-09-30T09:42:31;15.50;99.90
22065;DHT22;11197;53.110;8.468;2023-09-30T09:45:02;15.60;99.90
22065;DHT22;11197;53.110;8.468;2023-09-30T09:47:29;15.60;99.90
22065;DHT22;11197;53.110;8.468;2023-09-30T09:49:58;15.70;99.90
22065;DHT22;11197;53.110;8.468;2023-09-30T09:52:24;15.70;99.90
22065;DHT22;11197;53.110;8.468;2023-09-30T09:54:51;15.80;99.90
22065;DHT22;11197;53.110;8.468;2023-09-30T09:57:18;15.80;99.90
22065;DHT22;11197;53.110;8.468;2023-09-30T09:59:45;15.80;99.90
22065;DHT22;11197;53.110;8.468;2023-09-30T10:02:14;15.80;99.90
22065;DHT22;11197;53.110;8.468;2023-09-30T10:04:47;15.80;99.90
22065;DHT22;11197;53.110;8.468;2023-09-30T10:07:29;15.90;99.90
22065;DHT22;11197;53.110;8.468;2023-09-30T10:09:59;15.90;99.90
22065;DHT22;11197;53.110;8.468;2023-09-30T10:12:26;15.90;99.90
22065;DHT22;11197;53.110;8.468;2023-09-30T10:14:55;15.90;99.90
22065;DHT22;11197;53.110;8.468;2023-09-30T10:17:20;16.00;99.90
22065;DHT22;11197;53.110;8.468;2023-09-30T10:20:06;16.00;99.90
22065;DHT22;11197;53.110;8.468;2023-09-30T10:22:33;16.10;99.90
22065;DHT22;11197;53.110;8.468;2023-09-30T10:24:59;16.10;99.90
22065;DHT22;11197;53.110;8.468;2023-09-30T10:40:53;16.30;99.90
22065;DHT22;11197;53.110;8.468;2023-09-30T10:46:01;16.50;99.90
22065;DHT22;11197;53.110;8.468;2023-09-30T10:51:13;16.50;99.90
22065;DHT22;11197;53.110;8.468;2023-09-30T10:53:50;16.60;99.90
22065;DHT22;11197;53.110;8.468;2023-09-30T10:56:20;16.60;99.90
22065;DHT22;11197;53.110;8.468;2023-09-30T10:58:53;16.70;99.90
22065;DHT22;11197;53.110;8.468;2023-09-30T11:01:21;16.70;99.90
22065;DHT22;11197;53.110;8.468;2023-09-30T11:03:49;16.70;99.90
22065;DHT22;11197;53.110;8.468;2023-09-30T11:06:18;16.70;99.90
22065;DHT22;11197;53.110;8.468;2023-09-30T11:08:57;16.80;99.90
22065;DHT22;11197;53.110;8.468;2023-09-30T11:11:55;16.80;99.90
22065;DHT22;11197;53.110;8.468;2023-09-30T11:14:24;16.80;99.90
22065;DHT22;11197;53.110;8.468;2023-09-30T11:16:51;16.90;99.90
22065;DHT22;11197;53.110;8.468;2023-09-30T11:19:18;16.90;99.90
22065;DHT22;11197;53.110;8.468;2023-09-30T11:21:52;16.90;99.90
22065;DHT22;11197;53.110;8.468;2023-09-30T11:24:18;17.00;99.90
22065;DHT22;11197;53.110;8.468;2023-09-30T11:26:45;17.00;99.90
22065;DHT22;11197;53.110;8.468;2023-09-30T11:29:15;17.00;99.90
22065;DHT22;11197;53.110;8.468;2023-09-30T11:31:43;17.10;99.90
22065;DHT22;11197;53.110;8.468;2023-09-30T11:34:09;17.10;99.90
22065;DHT22;11197;53.110;8.468;2023-09-30T11:36:38;17.20;99.90
22065;DHT22;11197;53.110;8.468;2023-09-30T11:39:10;17.20;99.90
22065;DHT22;11197;53.110;8.468;2023-09-30T11:41:46;17.30;99.90
22065;DHT22;11197;53.110;8.468;2023-09-30T11:44:12;17.30;99.90
22065;DHT22;11197;53.110;8.468;2023-09-30T11:46:54;17.30;99.90
22065;DHT22;11197;53.110;8.468;2023-09-30T11:51:49;17.30;99.90
22065;DHT22;11197;53.110;8.468;2023-09-30T11:54:15;17.30;99.90
22065;DHT22;11197;53.110;8.468;2023-09-30T11:56:41;17.30;99.90
22065;DHT22;11197;53.110;8.468;2023-09-30T11:59:07;17.40;99.90
22065;DHT22;11197;53.110;8.468;2023-09-30T12:01:36;17.40;99.90
22065;DHT22;11197;53.110;8.468;2023-09-30T12:04:03;17.40;99.90
22065;DHT22;11197;53.110;8.468;2023-09-30T12:06:29;17.40;99.90
22065;DHT22;11197;53.110;8.468;2023-09-30T12:08:55;17.50;99.90
22065;DHT22;11197;53.110;8.468;2023-09-30T12:11:20;17.50;99.90
22065;DHT22;11197;53.110;8.468;2023-09-30T12:13:49;17.50;99.90
22065;DHT22;11197;53.110;8.468;2023-09-30T12:16:18;17.50;99.90
22065;DHT22;11197;53.110;8.468;2023-09-30T12:18:44;17.60;99.90
22065;DHT22;11197;53.110;8.468;2023-09-30T12:21:11;17.60;99.90
22065;DHT22;11197;53.110;8.468;2023-09-30T12:23:37;17.60;99.90
22065;DHT22;11197;53.110;8.468;2023-09-30T12:26:03;17.60;99.90
22065;DHT22;11197;53.110;8.468;2023-09-30T12:28:32;17.70;99.90
22065;DHT22;11197;53.110;8.468;2023-09-30T12:31:01;17.70;99.90
22065;DHT22;11197;53.110;8.468;2023-09-30T12:33:29;17.80;99.90
22065;DHT22;11197;53.110;8.468;2023-09-30T12:35:56;17.80;99.90
22065;DHT22;11197;53.110;8.468;2023-09-30T12:38:26;17.90;99.90
22065;DHT22;11197;53.110;8.468;2023-09-30T12:40:54;17.90;99.90
22065;DHT22;11197;53.110;8.468;2023-09-30T12:43:21;17.90;99.90
22065;DHT22;11197;53.110;8.468;2023-09-30T12:45:47;17.90;99.90
22065;DHT22;11197;53.110;8.468;2023-09-30T12:48:16;17.90;99.90
22065;DHT22;11197;53.110;8.468;2023-09-30T12:50:43;18.00;99.90
22065;DHT22;11197;53.110;8.468;2023-09-30T12:53:10;18.00;99.90
22065;DHT22;11197;53.110;8.468;2023-09-30T12:55:35;18.10;99.90
22065;DHT22;11197;53.110;8.468;2023-09-30T12:58:01;18.10;99.90
22065;DHT22;11197;53.110;8.468;2023-09-30T13:00:27;18.10;99.90
22065;DHT22;11197;53.110;8.468;2023-09-30T13:02:56;18.10;99.90
22065;DHT22;11197;53.110;8.468;2023-09-30T13:05:23;18.10;99.90
22065;DHT22;11197;53.110;8.468;2023-09-30T13:07:49;18.10;99.90
22065;DHT22;11197;53.110;8.468;2023-09-30T13:10:14;18.10;99.90
22065;DHT22;11197;53.110;8.468;2023-09-30T13:12:40;18.10;99.90
22065;DHT22;11197;53.110;8.468;2023-09-30T13:15:06;18.10;99.90
22065;DHT22;11197;53.110;8.468;2023-09-30T13:17:34;18.10;99.90
22065;DHT22;11197;53.110;8.468;2023-09-30T13:19:59;18.10;99.90
22065;DHT22;11197;53.110;8.468;2023-09-30T13:22:25;18.20;99.90
22065;DHT22;11197;53.110;8.468;2023-09-30T13:24:51;18.20;99.90
22065;DHT22;11197;53.110;8.468;2023-09-30T13:27:16;18.20;99.90
22065;DHT22;11197;53.110;8.468;2023-09-30T13:29:43;18.20;99.90
22065;DHT22;11197;53.110;8.468;2023-09-30T13:32:09;18.30;99.90
22065;DHT22;11197;53.110;8.468;2023-09-30T13:34:36;18.30;99.90
22065;DHT22;11197;53.110;8.468;2023-09-30T13:37:01;18.30;99.90
22065;DHT22;11197;53.110;8.468;2023-09-30T13:39:27;18.40;99.90
22065;DHT22;11197;53.110;8.468;2023-09-30T13:41:53;18.40;99.90
22065;DHT22;11197;53.110;8.468;2023-09-30T13:44:18;18.40;99.90
22065;DHT22;11197;53.110;8.468;2023-09-30T13:46:44;18.40;99.90
22065;DHT22;11197;53.110;8.468;2023-09-30T13:49:11;18.40;99.90
22065;DHT22;11197;53.110;8.468;2023-09-30T13:51:36;18.40;99.90
22065;DHT22;11197;53.110;8.468;2023-09-30T13:54:04;18.50;99.90
22065;DHT22;11197;53.110;8.468;2023-09-30T13:56:30;18.50;99.90
22065;DHT22;11197;53.110;8.468;2023-09-30T13:58:56;18.50;99.90
22065;DHT22;11197;53.110;8.468;2023-09-30T14:01:23;18.50;99.90
22065;DHT22;11197;53.110;8.468;2023-09-30T14:03:48;18.50;99.90
22065;DHT22;11197;53.110;8.468;2023-09-30T14:06:14;18.50;99.90
22065;DHT22;11197;53.110;8.468;2023-09-30T14:08:41;18.50;99.90
22065;DHT22;11197;53.110;8.468;2023-09-30T14:11:10;18.50;99.90
22065;DHT22;11197;53.110;8.468;2023-09-30T14:13:37;18.40;99.90
22065;DHT22;11197;53.110;8.468;2023-09-30T14:16:04;18.40;99.90
22065;DHT22;11197;53.110;8.468;2023-09-30T14:18:30;18.40;99.90
22065;DHT22;11197;53.110;8.468;2023-09-30T14:20:55;18.40;99.90
22065;DHT22;11197;53.110;8.468;2023-09-30T14:23:21;18.40;99.90
22065;DHT22;11197;53.110;8.468;2023-09-30T14:25:46;18.40;99.90
22065;DHT22;11197;53.110;8.468;2023-09-30T14:28:12;18.40;99.90
22065;DHT22;11197;53.110;8.468;2023-09-30T14:30:39;18.40;99.90
22065;DHT22;11197;53.110;8.468;2023-09-30T14:33:05;18.40;99.90
22065;DHT22;11197;53.110;8.468;2023-09-30T14:35:33;18.40;99.90
22065;DHT22;11197;53.110;8.468;2023-09-30T14:38:00;18.40;99.90
22065;DHT22;11197;53.110;8.468;2023-09-30T14:40:26;18.40;99.90
22065;DHT22;11197;53.110;8.468;2023-09-30T14:42:51;18.40;99.90
22065;DHT22;11197;53.110;8.468;2023-09-30T14:45:18;18.40;99.90
22065;DHT22;11197;53.110;8.468;2023-09-30T14:47:43;18.40;99.90
22065;DHT22;11197;53.110;8.468;2023-09-30T14:50:09;18.40;99.90
22065;DHT22;11197;53.110;8.468;2023-09-30T14:52:35;18.40;99.90
22065;DHT22;11197;53.110;8.468;2023-09-30T14:55:01;18.40;99.90
22065;DHT22;11197;53.110;8.468;2023-09-30T14:57:27;18.40;99.90
22065;DHT22;11197;53.110;8.468;2023-09-30T14:59:52;18.40;99.90
22065;DHT22;11197;53.110;8.468;2023-09-30T15:02:18;18.40;99.90
22065;DHT22;11197;53.110;8.468;2023-09-30T15:04:44;18.40;99.90
22065;DHT22;11197;53.110;8.468;2023-09-30T15:07:09;18.40;99.90
22065;DHT22;11197;53.110;8.468;2023-09-30T15:09:35;18.40;99.90
22065;DHT22;11197;53.110;8.468;2023-09-30T15:12:01;18.40;99.90
22065;DHT22;11197;53.110;8.468;2023-09-30T15:14:27;18.40;99.90
22065;DHT22;11197;53.110;8.468;2023-09-30T15:16:53;18.50;99.90
22065;DHT22;11197;53.110;8.468;2023-09-30T15:19:18;18.40;99.90
22065;DHT22;11197;53.110;8.468;2023-09-30T15:21:44;18.40;99.90
22065;DHT22;11197;53.110;8.468;2023-09-30T15:24:11;18.50;99.90
22065;DHT22;11197;53.110;8.468;2023-09-30T15:26:36;18.40;99.90
22065;DHT22;11197;53.110;8.468;2023-09-30T15:29:02;18.40;99.90
22065;DHT22;11197;53.110;8.468;2023-09-30T15:31:31;18.40;99.90
22065;DHT22;11197;53.110;8.468;2023-09-30T15:33:57;18.40;99.90
22065;DHT22;11197;53.110;8.468;2023-09-30T15:36:23;18.40;99.90
22065;DHT22;11197;53.110;8.468;2023-09-30T15:38:49;18.40;99.90
22065;DHT22;11197;53.110;8.468;2023-09-30T15:41:20;18.40;99.90
22065;DHT22;11197;53.110;8.468;2023-09-30T15:43:49;18.40;99.90
22065;DHT22;11197;53.110;8.468;2023-09-30T15:46:14;18.40;99.90
22065;DHT22;11197;53.110;8.468;2023-09-30T15:48:40;18.40;99.90
22065;DHT22;11197;53.110;8.468;2023-09-30T15:51:06;18.40;99.90
22065;DHT22;11197;53.110;8.468;2023-09-30T15:53:32;18.40;99.90